AirNav   Phillips 66 Aviation Fuel
 
 772 users online  

2E2 Sharpe's Strip Airport
Emmett, Michigan, USA

GOING TO EMMETT?


FAA INFORMATION EFFECTIVE 01 FEBRUARY 2018

Location

FAA Identifier: 2E2
Lat/Long: 42-57-05.8000N / 082-46-33.3000W
42-57.096667N / 082-46.555000W
42.9516111 / -82.7759167
(estimated)
Elevation: 781 ft. / 238 m (estimated)
From city: 2 miles S of EMMETT, MI
Time zone: UTC -5 (UTC -4 during Daylight Saving Time)
Zip code: 48041

Airport Operations

Airport use: Open to the public
Activation date: 11/2003
Control tower: no
ARTCC: CLEVELAND CENTER
FSS: LANSING FLIGHT SERVICE STATION
NOTAMs facility: LAN (NOTAM-D service available)
Attendance: IREG
Pattern altitude: 1781 ft. MSL
Wind indicator: yes
Segmented circle: no

Airport Communications

CTAF: 122.9
WX AWOS-3 at PHN (11 nm E): 118.375 (810-364-7787)

Nearby radio navigation aids

VOR radial/distance  VOR name  Freq  Var
PSIr069/36.5PONTIAC VORTAC111.0003W

 
NDB name  Hdg/Dist  Freq  Var  ID
PHURN317/10.233207WPH .--. ....

Airport Services

Runway Information

Runway 18/36

Dimensions: 2700 x 90 ft. / 823 x 27 m
Surface: turf, in good condition
Runway edge markings: RY 36 & DSPLCD THLD MKD WITH YELLOW CONES.
RUNWAY 18  RUNWAY 36
Latitude: 42-57.319333N42-56.875000N
Longitude: 082-46.566167W082-46.544500W
Traffic pattern: leftleft
Displaced threshold: 700 ft.no
Obstructions: 33 ft. pline, marked, 75 ft. from runway, 2:1 slope to clear
APCH RATIO 0:1 TO DSPLCD THLD, +25' TREES 0 FT DSTC, 96' RIGHT.
25 ft. trees, 60 ft. left of centerline

Airport Ownership and Management from official FAA records

Ownership: Privately-owned
Owner: VERNON SHARPE
11371 HILL ROAD
RILEY, MI 48041
Phone 810-384-6668
Manager: VERNON SHARPE
11371 HILL ROAD
RILEY, MI 48041
Phone 810-384-6668

Airport Operational Statistics

Aircraft based on the field: 1
Single engine airplanes: 1
    
Aircraft operations: 100/year *
50% transient general aviation
50% local general aviation
* for 12-month period ending 31 December 2014

Additional Remarks

DEER & TURKEYS INVOF ARPT.
FOR IFR CLEARANCE CTC CLEVELAND ARTCC (ZOB) 126.52/285.52 OR CALL ZOB 440-774-0224.

Instrument Procedures

There are no published instrument procedures at 2E2.

Some nearby airports with instrument procedures:

KPHN - St Clair County International Airport (11 nm E)
D98 - Romeo State Airport (13 nm SW)
57D - Ray Community Airport (14 nm S)
KMTC - Selfridge Air National Guard Base (20 nm S)
D95 - Dupont-Lapeer Airport (23 nm W)
 
Loc | Ops | Rwys | IFR | FBO | Links
Com | Nav | Svcs | Stats | Notes

AirNav Hotels Sweepstakes
 
Area around 2E2 (Sharpe's Strip Airport)
 
Road maps at: MapQuest Bing Google
 
Aerial photo
WARNING: Photo may not be current or correct
Aerial photo of 2E2 (Sharpe's Strip Airport)
Photo by Vic Adamko
Taken in the Summer of 2004

Do you have a better or more recent aerial photo of Sharpe's Strip Airport that you would like to share? If so, please send us your photo.

 
Sectional chart

 
Airport distance calculator
Flying to Sharpe's Strip Airport? Find the distance to fly.

From to 2E2

Sunrise and sunset
Times for 17-Feb-2018
 Local
(UTC-5)
 Zulu
(UTC)
Morning civil twilight06:5811:58
Sunrise07:2712:27
Sunset18:0423:04
Evening civil twilight18:3323:33

Current date and time
Zulu (UTC)  18-Feb-2018 01:57:47
Local (UTC-5)  17-Feb-2018 20:57:47
 
METAR
KPHN 
12nm E 
180155Z AUTO 21004KT 1 3/4SM -SN BKN015 OVC023 M01/M04 A2998 RMK AO2
KMTC 
20nm S 
180145Z 22005KT 10SM -SN SCT035 OVC080 00/M01 A2995 RMK AO2A SNB45 SLP154
CYZR 
21nm E 
180151Z AUTO 22006KT 9SM -SN BKN044 OVC070 M01/M03 A2997 RMK SLP159
KD95 
23nm W 
180155Z AUTO 27004KT 1 3/4SM -SN SCT006 OVC019 M02/M02 A2997 RMK AO2 T10161022
TAF
KMTC 
20nm S 
171700Z 1717/1823 20010G15KT 9999 SCT020 BKN120 QNH2998INS BECMG 1800/1801 22006KT 9999 BKN020 OVC100 620204 QNH2999INS BECMG 1802/1803 23006KT 9000 -SHSN OVC015 610159 QNH3000INS BECMG 1804/1805 25009KT 9999 NSW BKN020 620202 QNH3002INS BECMG 1813/1814 22012KT 9999 SCT020 SCT120 QNH3025INS TX02/1721Z TNM03/1808Z
CYZR 
21nm E 
171938Z 1720/1803 20012G22KT P6SM SCT020 BKN100 TEMPO 1720/1803 5SM -SN BKN020 BECMG 1722/1724 20007KT RMK FCST BASED ON AUTO OBS. NXT FCST WILL BE ISSUED AT 180845Z
NOTAMs
Click for the latest NOTAMs
NOTAMs are issued by the DoD/FAA and will open in a separate window not controlled by AirNav.

 

 
 

Would you like to see your business listed on this page?

 If your business provides an interesting product or service to pilots, flight crews, aircraft, or users of the Sharpe's Strip Airport, you should consider listing it here.  To start the listing process, click on the button below
 
Add a business
 

Other Pages about Sharpe's Strip Airport

Update a link
 
Copyright © AirNav, LLC. All rights reserved. Privacy Policy  Contact